Time;durP1;ratioP1;P1;durP2;ratioP2;P2;SDS_P1;SDS_P2;PMS_P1;PMS_P2;Temp;Humidity;BMP_temperature;BMP_pressure;BME280_temperature;BME280_humidity;BME280_pressure;Samples;Min_cycle;Max_cycle;Signal;HPM_P1;HPM_P2
2022/07/25 00:01:27;;;;;;;3.95;2.20;;;;;;;25.23;61.70;100563.72;4976130;28;20671;-67
2022/07/25 00:03:55;;;;;;;4.63;2.25;;;;;;;25.11;59.36;100554.38;4983657;28;20030;-67
2022/07/25 00:06:21;;;;;;;4.93;2.55;;;;;;;25.19;59.92;100561.13;4998921;28;20046;-67
2022/07/25 00:08:48;;;;;;;3.28;2.15;;;;;;;25.29;60.17;100557.16;4994029;28;20542;-67
2022/07/25 00:11:14;;;;;;;3.17;2.38;;;;;;;25.20;58.45;100556.38;4993873;28;20066;-67
2022/07/25 00:13:43;;;;;;;3.15;2.30;;;;;;;25.35;58.04;100560.09;4991693;28;20072;-67
2022/07/25 00:16:14;;;;;;;4.15;2.30;;;;;;;25.45;58.32;100558.91;5002927;28;20050;-67
2022/07/25 00:18:44;;;;;;;3.67;2.35;;;;;;;25.55;56.80;100557.69;4977495;28;20600;-67
2022/07/25 00:21:13;;;;;;;3.35;2.22;;;;;;;25.49;56.36;100549.22;4992085;28;20672;-67
2022/07/25 00:23:50;;;;;;;3.08;2.05;;;;;;;25.33;56.03;100545.97;5002383;28;20045;-67
2022/07/25 00:26:19;;;;;;;5.30;2.38;;;;;;;25.41;55.78;100544.50;5001392;28;20549;-67
2022/07/25 00:28:46;;;;;;;3.55;2.28;;;;;;;25.21;55.88;100544.13;4992362;28;20491;-67
2022/07/25 00:31:12;;;;;;;4.00;2.40;;;;;;;25.21;55.72;100542.13;4992995;28;20034;-67
2022/07/25 00:33:43;;;;;;;4.25;2.50;;;;;;;25.21;55.42;100547.66;4992059;28;20459;-67
2022/07/25 00:36:12;;;;;;;5.15;2.28;;;;;;;25.32;55.41;100545.22;4991676;28;20062;-67
2022/07/25 00:38:40;;;;;;;5.32;2.25;;;;;;;25.35;54.89;100549.81;4996198;28;20053;-67
2022/07/25 00:41:08;;;;;;;3.22;2.42;;;;;;;25.36;55.11;100547.84;4992509;28;20038;-67
2022/07/25 00:43:36;;;;;;;3.58;2.05;;;;;;;25.22;54.92;100551.19;4991618;28;20464;-67
2022/07/25 00:46:02;;;;;;;2.85;2.33;;;;;;;25.15;55.75;100540.44;4990280;28;20034;-67
2022/07/25 00:48:28;;;;;;;2.35;2.00;;;;;;;25.09;55.34;100537.50;4992429;28;20034;-67
2022/07/25 00:50:57;;;;;;;3.08;2.20;;;;;;;25.20;54.74;100540.63;4990158;28;20038;-67
2022/07/25 00:53:27;;;;;;;2.60;2.00;;;;;;;25.30;54.38;100544.91;5001041;28;20519;-67
2022/07/25 00:55:54;;;;;;;2.15;1.85;;;;;;;25.29;54.36;100548.13;5006482;28;20053;-67
2022/07/25 00:58:25;;;;;;;2.92;2.05;;;;;;;25.09;53.80;100545.03;4991605;28;20388;-66
2022/07/25 01:00:59;;;;;;;3.33;2.28;;;;;;;25.25;53.26;100539.22;4993367;28;20058;-67
2022/07/25 01:03:25;;;;;;;3.05;1.92;;;;;;;25.34;53.39;100536.50;4993992;28;20085;-67
2022/07/25 01:05:53;;;;;;;4.93;2.22;;;;;;;25.36;53.05;100534.78;4990740;28;20045;-67
2022/07/25 01:08:20;;;;;;;2.90;1.85;;;;;;;25.33;52.99;100526.69;4990462;28;20022;-67
2022/07/25 01:10:50;;;;;;;2.90;1.85;;;;;;;25.42;52.48;100529.47;4992363;28;20507;-67
2022/07/25 01:13:16;;;;;;;2.40;1.77;;;;;;;25.37;52.68;100527.28;4985574;28;20034;-67
2022/07/25 01:15:45;;;;;;;3.00;2.00;;;;;;;25.38;52.59;100521.31;5003369;28;20084;-67
2022/07/25 01:18:10;;;;;;;2.58;1.90;;;;;;;25.24;52.29;100521.16;4993418;28;20066;-67
2022/07/25 01:20:36;;;;;;;4.70;2.15;;;;;;;25.24;52.49;100518.41;5008501;28;20430;-67
2022/07/25 01:23:04;;;;;;;2.90;1.90;;;;;;;25.37;52.46;100513.50;5005718;28;20479;-67
2022/07/25 01:25:34;;;;;;;2.83;2.05;;;;;;;25.31;52.15;100510.59;4989344;28;20121;-67
2022/07/25 01:28:02;;;;;;;4.15;2.20;;;;;;;25.28;52.62;100508.00;5006637;28;20088;-67
2022/07/25 01:30:31;;;;;;;8.90;2.10;;;;;;;25.32;52.51;100508.59;4974122;28;20057;-67
2022/07/25 01:32:59;;;;;;;3.83;2.20;;;;;;;25.17;53.38;100513.16;4991488;28;20034;-67
2022/07/25 01:35:24;;;;;;;3.08;2.05;;;;;;;25.17;53.56;100513.94;4986051;28;20045;-67
2022/07/25 01:37:54;;;;;;;4.28;2.22;;;;;;;25.22;52.78;100501.53;4996332;28;20027;-67
2022/07/25 01:40:24;;;;;;;2.88;2.00;;;;;;;25.05;52.63;100504.59;4990036;28;20030;-67
2022/07/25 01:42:49;;;;;;;3.17;2.20;;;;;;;24.71;53.77;100499.28;4990656;28;20038;-67
2022/07/25 01:45:15;;;;;;;5.03;2.00;;;;;;;24.65;53.75;100500.31;4984278;28;20034;-67
2022/07/25 01:47:43;;;;;;;5.88;2.10;;;;;;;24.81;53.84;100495.38;4993222;28;20046;-67
2022/07/25 01:50:09;;;;;;;5.55;2.10;;;;;;;24.94;53.64;100493.25;4991484;28;20058;-67
2022/07/25 01:52:36;;;;;;;3.50;1.70;;;;;;;24.98;53.02;100493.09;4991185;28;20073;-67
2022/07/25 01:55:01;;;;;;;3.08;1.90;;;;;;;24.66;52.90;100494.34;4987453;28;20089;-67
2022/07/25 01:57:27;;;;;;;5.25;1.92;;;;;;;24.70;53.34;100491.47;4995970;28;20113;-67
2022/07/25 01:59:55;;;;;;;3.05;1.70;;;;;;;24.76;53.01;100487.69;5007027;28;20030;-67
2022/07/25 02:02:20;;;;;;;2.25;1.77;;;;;;;24.37;53.42;100484.94;4985201;28;20070;-67
2022/07/25 02:04:46;;;;;;;2.38;1.63;;;;;;;24.53;53.54;100482.69;4997850;28;20482;-66
2022/07/25 02:07:14;;;;;;;3.60;1.85;;;;;;;24.59;53.36;100480.88;4991901;28;20364;-67
2022/07/25 02:09:40;;;;;;;3.03;1.98;;;;;;;24.55;52.88;100480.25;4989400;28;20068;-67
2022/07/25 02:12:11;;;;;;;2.10;1.60;;;;;;;24.55;53.47;100473.97;5009817;23;20040;-66
2022/07/25 02:14:39;;;;;;;1.70;1.30;;;;;;;24.64;52.73;100472.00;5008850;28;20062;-66
2022/07/25 02:17:18;;;;;;;2.33;1.40;;;;;;;24.55;52.90;100466.47;5001860;28;20064;-66
2022/07/25 02:19:46;;;;;;;5.15;1.50;;;;;;;24.62;52.78;100476.44;5007093;28;20034;-66
2022/07/25 02:22:12;;;;;;;2.00;1.60;;;;;;;24.66;52.07;100463.28;5005482;28;20040;-67
2022/07/25 02:24:42;;;;;;;1.45;1.35;;;;;;;24.63;52.27;100456.69;5000602;28;20121;-66
2022/07/25 02:27:08;;;;;;;2.83;1.73;;;;;;;24.55;51.98;100440.91;4996230;28;20061;-66
2022/07/25 02:29:36;;;;;;;2.17;1.40;;;;;;;24.54;51.61;100448.44;5014641;28;20066;-66
2022/07/25 02:32:02;;;;;;;1.98;1.35;;;;;;;24.56;51.91;100447.97;5006312;28;20379;-66
2022/07/25 02:34:30;;;;;;;3.00;1.73;;;;;;;24.40;51.82;100443.47;5006633;28;20041;-66
2022/07/25 02:36:57;;;;;;;3.58;1.80;;;;;;;24.33;52.17;100440.97;5007301;28;20148;-67
2022/07/25 02:39:26;;;;;;;2.05;1.55;;;;;;;24.37;52.42;100440.88;5014734;28;20038;-67
2022/07/25 02:41:51;;;;;;;5.93;1.65;;;;;;;24.28;51.86;100433.34;5013352;28;20072;-66
2022/07/25 02:44:19;;;;;;;4.20;1.25;;;;;;;24.44;52.21;100433.09;5009562;28;20032;-66
2022/07/25 02:46:44;;;;;;;2.35;1.63;;;;;;;24.35;51.74;100427.53;5005647;28;20023;-66
2022/07/25 02:49:12;;;;;;;2.72;1.30;;;;;;;24.33;52.03;100429.22;4991334;28;21211;-66
2022/07/25 02:51:41;;;;;;;4.95;1.60;;;;;;;24.42;51.43;100427.25;4990605;28;20031;-66
2022/07/25 02:54:09;;;;;;;4.95;2.05;;;;;;;24.31;51.53;100426.16;4992246;28;20030;-66
2022/07/25 02:56:34;;;;;;;4.57;1.63;;;;;;;24.12;51.97;100423.31;4994750;28;20026;-67
2022/07/25 02:59:02;;;;;;;2.25;1.40;;;;;;;24.32;51.95;100422.94;5011793;28;20112;-66
2022/07/25 03:01:30;;;;;;;5.07;1.60;;;;;;;24.40;51.75;100424.19;4995343;28;20033;-66
2022/07/25 03:03:58;;;;;;;2.97;1.70;;;;;;;24.13;51.79;100422.13;5010998;28;20037;-66
2022/07/25 03:06:24;;;;;;;2.03;1.30;;;;;;;24.10;51.98;100419.47;5013535;28;20030;-67
2022/07/25 03:08:52;;;;;;;3.38;1.30;;;;;;;24.33;51.44;100418.22;5013151;28;20044;-67
2022/07/25 03:11:24;;;;;;;5.40;1.67;;;;;;;24.31;51.67;100415.91;5008105;28;20404;-67
2022/07/25 03:13:53;;;;;;;1.83;1.35;;;;;;;24.37;51.20;100414.06;5013527;28;20453;-66
2022/07/25 03:16:19;;;;;;;2.50;1.60;;;;;;;24.42;51.29;100423.75;5012532;28;20033;-66
2022/07/25 03:18:47;;;;;;;2.22;1.50;;;;;;;24.51;51.49;100416.25;5001485;28;20038;-66
2022/07/25 03:21:15;;;;;;;2.22;1.58;;;;;;;24.43;51.21;100406.00;5012885;28;20059;-66
2022/07/25 03:23:41;;;;;;;2.05;1.30;;;;;;;24.44;50.94;100411.06;5022015;28;20040;-67
2022/07/25 03:26:09;;;;;;;2.28;1.08;;;;;;;24.08;51.13;100408.16;5012709;28;20037;-66
2022/07/25 03:28:35;;;;;;;5.15;1.30;;;;;;;24.07;51.62;100390.13;5011309;28;20046;-66
2022/07/25 03:31:01;;;;;;;1.80;1.20;;;;;;;24.14;51.27;100392.59;5013188;28;20072;-66
2022/07/25 03:33:34;;;;;;;3.05;0.90;;;;;;;24.14;51.69;100387.09;5007122;28;20045;-66
2022/07/25 03:36:01;;;;;;;3.45;1.50;;;;;;;24.25;51.68;100381.16;5012006;28;20037;-66
2022/07/25 03:38:28;;;;;;;3.58;1.10;;;;;;;24.26;51.18;100380.72;5013445;28;20029;-66
2022/07/25 03:40:57;;;;;;;2.13;1.05;;;;;;;24.13;51.25;100375.31;5011179;28;20034;-67
2022/07/25 03:43:25;;;;;;;1.30;1.20;;;;;;;24.09;52.18;100376.69;5003596;28;20092;-67
2022/07/25 03:45:51;;;;;;;1.98;1.23;;;;;;;23.98;51.80;100365.31;5006770;28;20030;-66
2022/07/25 03:48:16;;;;;;;2.28;1.45;;;;;;;24.06;51.28;100361.09;4992096;28;20030;-67
2022/07/25 03:50:42;;;;;;;1.52;1.23;;;;;;;24.09;51.49;100354.66;5001891;28;20026;-66
2022/07/25 03:53:10;;;;;;;2.50;1.10;;;;;;;24.20;51.22;100351.50;4997990;28;20038;-66
2022/07/25 03:55:39;;;;;;;3.42;1.27;;;;;;;24.16;51.07;100340.59;4993392;28;20078;-66
2022/07/25 03:58:04;;;;;;;1.48;1.00;;;;;;;24.23;51.06;100337.56;4993920;28;20372;-66
2022/07/25 04:00:30;;;;;;;2.17;1.20;;;;;;;24.25;50.77;100339.88;5009912;28;20041;-66
2022/07/25 04:03:01;;;;;;;3.63;1.17;;;;;;;24.10;50.83;100342.41;4997327;28;20031;-67
2022/07/25 04:05:28;;;;;;;1.80;1.08;;;;;;;23.97;50.79;100336.22;4997585;28;20406;-68
2022/07/25 04:07:59;;;;;;;1.60;1.10;;;;;;;24.03;51.00;100335.22;4998193;28;20050;-67
2022/07/25 04:10:25;;;;;;;1.27;1.15;;;;;;;23.84;51.63;100332.84;5009468;28;20495;-66
2022/07/25 04:12:50;;;;;;;1.00;0.90;;;;;;;24.06;51.07;100339.81;4997337;28;20030;-67
2022/07/25 04:15:18;;;;;;;1.58;0.90;;;;;;;24.03;52.16;100332.47;4997093;28;20585;-66
2022/07/25 04:17:46;;;;;;;1.17;1.00;;;;;;;24.09;51.38;100327.13;5006126;28;20037;-67
2022/07/25 04:20:17;;;;;;;2.22;1.17;;;;;;;24.20;50.92;100319.19;5012559;28;20030;-67
2022/07/25 04:22:45;;;;;;;5.03;1.10;;;;;;;24.02;51.21;100322.66;5004095;28;20076;-67
2022/07/25 04:25:13;;;;;;;1.53;1.10;;;;;;;24.13;51.40;100327.75;4999408;28;20029;-67
2022/07/25 04:27:41;;;;;;;1.73;1.00;;;;;;;24.26;51.29;100313.84;5004568;28;20040;-67
2022/07/25 04:30:07;;;;;;;1.85;1.10;;;;;;;24.18;50.85;100314.16;5012096;28;20042;-67
2022/07/25 04:32:38;;;;;;;1.63;1.10;;;;;;;24.19;51.50;100312.19;5012639;28;20045;-67
2022/07/25 04:35:07;;;;;;;1.88;1.30;;;;;;;24.25;51.36;100299.34;5013260;28;20475;-67
2022/07/25 04:37:34;;;;;;;2.42;1.15;;;;;;;24.11;51.24;100305.44;4994186;28;20145;-67
2022/07/25 04:40:03;;;;;;;1.50;1.30;;;;;;;24.16;51.62;100299.31;5000503;28;20053;-67
2022/07/25 04:42:31;;;;;;;1.63;1.10;;;;;;;24.28;51.29;100295.66;5012357;28;20053;-67
2022/07/25 04:44:57;;;;;;;1.88;1.10;;;;;;;24.44;51.05;100295.38;5008976;28;20598;-67
2022/07/25 04:47:22;;;;;;;1.08;0.88;;;;;;;24.20;51.49;100290.94;5005047;28;20245;-67
2022/07/25 04:49:50;;;;;;;2.08;1.30;;;;;;;24.23;51.59;100287.25;5007684;28;20065;-67
2022/07/25 04:52:19;;;;;;;2.05;1.08;;;;;;;24.41;51.58;100282.53;5010389;28;20045;-67
2022/07/25 04:54:47;;;;;;;1.33;1.05;;;;;;;24.29;51.42;100272.44;5008948;28;20030;-67
2022/07/25 04:57:15;;;;;;;1.27;0.98;;;;;;;24.46;51.30;100267.38;4999178;28;20030;-67
2022/07/25 04:59:43;;;;;;;1.15;0.93;;;;;;;24.56;51.18;100264.19;4995582;28;20030;-67
2022/07/25 05:02:11;;;;;;;2.20;1.13;;;;;;;24.55;51.28;100267.38;4997936;28;20045;-67
2022/07/25 05:04:36;;;;;;;1.98;1.15;;;;;;;24.56;50.98;100255.91;4999336;28;20034;-67
2022/07/25 05:07:02;;;;;;;2.00;1.30;;;;;;;24.70;50.77;100266.28;4992603;28;20443;-67
2022/07/25 05:09:30;;;;;;;1.20;1.08;;;;;;;24.66;50.80;100260.19;4999424;28;20090;-67
2022/07/25 05:12:03;;;;;;;1.30;1.02;;;;;;;24.68;50.82;100259.72;5021737;28;20046;-67
2022/07/25 05:14:31;;;;;;;1.50;1.13;;;;;;;24.55;51.06;100254.38;5008368;28;20505;-67
2022/07/25 05:16:56;;;;;;;1.48;1.10;;;;;;;24.42;51.38;100251.00;5009374;28;20029;-67
2022/07/25 05:19:22;;;;;;;2.55;1.45;;;;;;;24.75;50.79;100249.19;5011367;28;20037;-67
2022/07/25 05:21:47;;;;;;;1.30;1.20;;;;;;;24.93;50.65;100253.91;5011732;28;20041;-67
2022/07/25 05:24:18;;;;;;;2.17;1.20;;;;;;;25.06;50.48;100248.97;5004554;28;20044;-67
2022/07/25 05:26:45;;;;;;;1.50;1.08;;;;;;;25.21;50.51;100243.56;5000470;28;20104;-67
2022/07/25 05:29:11;;;;;;;1.55;1.05;;;;;;;25.24;49.98;100248.91;5011519;28;20026;-67
2022/07/25 05:31:37;;;;;;;1.80;1.00;;;;;;;25.12;50.13;100232.56;5009676;28;20460;-67
2022/07/25 05:34:02;;;;;;;1.75;1.10;;;;;;;25.44;50.78;100240.91;5001346;28;20038;-67
2022/07/25 05:36:30;;;;;;;1.27;1.13;;;;;;;25.49;49.06;100239.50;5016607;28;20116;-67
2022/07/25 05:38:55;;;;;;;2.00;1.40;;;;;;;25.44;49.49;100237.38;5009939;28;20045;-67
2022/07/25 05:41:23;;;;;;;2.00;1.00;;;;;;;25.56;49.31;100237.19;5010992;28;20034;-67
2022/07/25 05:43:53;;;;;;;2.15;1.17;;;;;;;25.52;49.19;100236.56;5001985;28;20080;-67
2022/07/25 05:46:19;;;;;;;1.15;0.90;;;;;;;25.64;49.19;100226.56;5008936;28;20053;-67
2022/07/25 05:48:47;;;;;;;2.80;1.13;;;;;;;25.89;48.92;100231.63;5010825;28;20095;-67
2022/07/25 05:51:12;;;;;;;1.67;1.02;;;;;;;26.27;49.70;100223.41;5002317;28;20695;-67
2022/07/25 05:53:40;;;;;;;2.97;1.30;;;;;;;26.69;47.41;100223.19;5008636;28;20038;-67
2022/07/25 05:56:06;;;;;;;2.42;1.30;;;;;;;26.62;47.57;100210.50;5016833;28;20034;-67
2022/07/25 05:58:31;;;;;;;1.92;1.10;;;;;;;26.53;49.02;100218.13;5009103;28;20030;-67
2022/07/25 06:00:57;;;;;;;4.05;1.17;;;;;;;26.90;47.25;100221.31;5005917;28;20430;-67
2022/07/25 06:03:25;;;;;;;1.00;0.90;;;;;;;26.96;46.85;100214.66;5009349;28;20522;-67
2022/07/25 06:05:51;;;;;;;1.30;0.90;;;;;;;26.90;46.88;100207.50;5008289;28;20042;-67
2022/07/25 06:08:16;;;;;;;2.17;1.10;;;;;;;27.02;46.56;100214.72;5000595;28;20053;-67
2022/07/25 06:10:44;;;;;;;1.25;0.93;;;;;;;27.24;46.42;100204.00;4997415;28;20113;-67
2022/07/25 06:13:11;;;;;;;1.20;1.00;;;;;;;27.42;46.58;100209.34;5005364;28;20046;-67
2022/07/25 06:15:37;;;;;;;2.05;1.10;;;;;;;27.57;47.51;100207.28;5005230;28;20100;-67
2022/07/25 06:18:02;;;;;;;3.33;1.00;;;;;;;27.84;46.86;100209.69;5003864;28;20584;-67
2022/07/25 06:20:31;;;;;;;1.33;1.10;;;;;;;27.94;46.78;100202.78;5010298;28;20041;-68
2022/07/25 06:22:59;;;;;;;1.17;1.00;;;;;;;27.98;45.82;100188.72;5006773;28;20457;-67
2022/07/25 06:25:25;;;;;;;1.97;1.40;;;;;;;27.62;46.04;100188.00;4998812;28;20041;-68
2022/07/25 06:27:51;;;;;;;1.55;1.20;;;;;;;27.59;45.76;100190.97;4996342;28;20449;-67
2022/07/25 06:30:16;;;;;;;2.28;1.02;;;;;;;27.20;47.12;100179.31;4994911;28;20042;-67
2022/07/25 06:32:42;;;;;;;1.83;1.17;;;;;;;26.98;47.55;100175.44;4995479;28;20394;-67
2022/07/25 06:35:10;;;;;;;1.48;0.98;;;;;;;27.37;48.08;100174.81;4993157;28;20045;-67
2022/07/25 06:37:40;;;;;;;1.35;1.02;;;;;;;27.49;46.85;100164.66;4993132;28;20047;-67
2022/07/25 06:40:07;;;;;;;2.03;1.00;;;;;;;27.36;46.88;100169.78;5003149;28;20037;-67
2022/07/25 06:42:44;;;;;;;2.00;1.17;;;;;;;27.36;47.27;100167.78;5009721;28;20025;-67
2022/07/25 06:45:13;;;;;;;1.40;1.20;;;;;;;27.58;47.07;100173.59;5007509;28;20548;-68
2022/07/25 06:47:41;;;;;;;2.90;1.08;;;;;;;27.64;47.84;100174.44;5005908;28;20494;-67
2022/07/25 06:50:09;;;;;;;1.88;1.17;;;;;;;27.14;47.97;100161.88;5003047;28;20707;-67
2022/07/25 06:52:34;;;;;;;1.40;1.30;;;;;;;27.49;47.77;100156.34;4977271;28;20042;-67
2022/07/25 06:55:01;;;;;;;2.03;1.23;;;;;;;27.58;48.09;100161.78;4983160;28;20046;-67
2022/07/25 06:57:27;;;;;;;2.10;1.33;;;;;;;27.43;48.24;100156.28;5015849;28;20065;-67
2022/07/25 06:59:57;;;;;;;1.60;1.10;;;;;;;27.55;48.08;100159.97;4989611;28;20438;-67
2022/07/25 07:02:23;;;;;;;1.35;1.08;;;;;;;27.96;47.26;100156.00;4995774;28;20399;-67
2022/07/25 07:04:49;;;;;;;1.23;1.08;;;;;;;28.24;47.00;100159.81;5007878;28;20030;-67
2022/07/25 07:07:15;;;;;;;2.25;1.45;;;;;;;28.58;46.10;100157.41;5010553;28;20022;-68
2022/07/25 07:09:41;;;;;;;1.58;1.30;;;;;;;28.22;46.95;100154.00;4993601;28;20095;-67
2022/07/25 07:12:10;;;;;;;2.28;1.25;;;;;;;28.26;46.34;100154.53;4993811;28;20055;-68
2022/07/25 07:14:38;;;;;;;2.28;1.45;;;;;;;28.64;45.98;100144.34;5010460;28;20506;-67
2022/07/25 07:17:06;;;;;;;3.67;1.50;;;;;;;28.62;46.39;100149.63;5003843;28;20084;-68
2022/07/25 07:19:32;;;;;;;3.60;1.42;;;;;;;28.54;47.46;100141.00;4993296;28;20042;-67
2022/07/25 07:22:02;;;;;;;1.73;1.20;;;;;;;28.65;45.48;100143.13;5005523;28;20040;-67
2022/07/25 07:24:28;;;;;;;1.92;1.42;;;;;;;28.83;45.65;100139.97;4993567;28;20030;-68
2022/07/25 07:27:01;;;;;;;1.48;1.10;;;;;;;28.47;46.14;100133.84;5003642;28;20037;-68
2022/07/25 07:29:30;;;;;;;1.58;1.35;;;;;;;28.77;46.14;100130.84;5008312;28;20184;-68
2022/07/25 07:31:55;;;;;;;1.65;1.33;;;;;;;29.00;46.44;100124.19;5000030;28;20035;-68
2022/07/25 07:34:23;;;;;;;3.35;1.42;;;;;;;29.15;46.36;100122.09;5007758;28;20052;-67
2022/07/25 07:36:51;;;;;;;2.58;1.67;;;;;;;29.30;45.70;100119.91;4998078;28;20030;-67
2022/07/25 07:39:16;;;;;;;2.38;1.40;;;;;;;29.68;46.87;100124.88;5006326;28;20037;-67
2022/07/25 07:41:42;;;;;;;2.42;1.63;;;;;;;29.94;46.16;100131.06;4996284;28;20040;-67
2022/07/25 07:44:10;;;;;;;2.08;1.40;;;;;;;29.83;45.23;100128.22;4992012;28;20027;-67
2022/07/25 07:46:39;;;;;;;1.98;1.52;;;;;;;30.07;44.52;100120.22;5004358;28;20026;-68
2022/07/25 07:49:05;;;;;;;1.90;1.40;;;;;;;30.09;43.80;100114.94;4993455;28;20037;-67
2022/07/25 07:51:30;;;;;;;2.15;1.48;;;;;;;30.13;44.13;100109.88;4993347;28;20117;-67
2022/07/25 07:56:48;;;;;;;6.63;1.70;;;;;;;30.34;44.46;100106.91;4990325;28;20292;-67
2022/07/25 07:59:13;;;;;;;2.25;1.42;;;;;;;30.33;43.72;100089.47;4994136;28;20034;-67
2022/07/25 08:01:41;;;;;;;2.63;1.50;;;;;;;30.51;44.61;100088.22;5008921;28;20030;-67
2022/07/25 08:04:09;;;;;;;2.20;1.42;;;;;;;30.60;43.32;100093.53;5007903;28;20057;-67
2022/07/25 08:06:35;;;;;;;2.00;1.42;;;;;;;30.78;43.67;100084.63;5008120;28;20026;-67
2022/07/25 08:09:10;;;;;;;3.83;1.80;;;;;;;30.77;43.62;100083.13;5008992;28;20034;-67
2022/07/25 08:11:36;;;;;;;2.08;1.42;;;;;;;30.93;44.82;100085.91;5021717;22;20050;-66
2022/07/25 08:14:05;;;;;;;1.70;1.50;;;;;;;31.33;44.33;100087.34;5009951;28;20436;-66
2022/07/25 08:16:33;;;;;;;3.45;1.58;;;;;;;31.57;42.44;100093.06;5010270;28;21259;-66
2022/07/25 08:18:59;;;;;;;2.53;1.85;;;;;;;31.59;42.34;100081.44;5002162;28;20030;-66
2022/07/25 08:21:31;;;;;;;2.50;1.67;;;;;;;31.62;42.85;100075.59;5004679;28;20030;-66
2022/07/25 08:23:56;;;;;;;2.35;1.80;;;;;;;31.91;43.31;100082.56;5002318;28;20084;-66
2022/07/25 08:26:22;;;;;;;2.30;1.50;;;;;;;31.83;41.94;100073.97;5003229;28;20069;-66
2022/07/25 08:28:48;;;;;;;4.55;1.38;;;;;;;31.52;41.67;100070.81;5002119;28;20026;-66
2022/07/25 08:31:18;;;;;;;2.45;1.50;;;;;;;31.61;42.98;100070.53;5001990;28;20046;-66
2022/07/25 08:33:44;;;;;;;3.58;1.67;;;;;;;31.81;42.29;100065.34;5001856;28;20538;-66
2022/07/25 08:36:12;;;;;;;3.20;1.55;;;;;;;32.07;43.45;100073.34;5000545;28;20109;-66
2022/07/25 08:38:37;;;;;;;2.65;1.90;;;;;;;32.26;40.76;100067.88;5001154;28;20104;-66
2022/07/25 08:41:03;;;;;;;3.40;2.00;;;;;;;32.03;41.28;100066.53;5002356;28;20526;-67
2022/07/25 08:43:32;;;;;;;1.92;1.52;;;;;;;32.15;41.23;100056.81;5006213;28;20057;-66
2022/07/25 08:46:04;;;;;;;3.00;1.88;;;;;;;32.05;41.15;100063.97;5002216;28;20060;-66
2022/07/25 08:48:37;;;;;;;3.08;1.73;;;;;;;32.36;41.60;100055.13;4999759;28;20502;-66
2022/07/25 08:51:05;;;;;;;3.25;2.00;;;;;;;32.40;40.38;100047.22;5001675;28;20038;-66
2022/07/25 08:53:35;;;;;;;3.38;2.25;;;;;;;32.31;39.88;100045.50;4998780;28;20034;-66
2022/07/25 08:56:03;;;;;;;3.10;1.65;;;;;;;32.41;40.34;100045.94;4990474;28;20030;-66
2022/07/25 08:58:34;;;;;;;2.30;1.67;;;;;;;32.09;40.82;100042.16;5000743;28;20038;-66
2022/07/25 09:01:00;;;;;;;2.90;1.95;;;;;;;32.31;41.32;100047.56;4997473;28;20030;-66
2022/07/25 09:03:25;;;;;;;1.80;1.60;;;;;;;32.72;40.88;100034.25;4986729;28;20039;-66
2022/07/25 09:05:53;;;;;;;3.00;1.83;;;;;;;33.10;40.18;100047.06;4971290;28;20042;-66
2022/07/25 09:08:27;;;;;;;2.40;1.73;;;;;;;33.08;41.13;100035.69;4973336;28;20031;-66
2022/07/25 09:10:53;;;;;;;1.90;1.45;;;;;;;33.32;39.50;100032.84;4973240;28;20031;-67
2022/07/25 09:13:23;;;;;;;1.98;1.70;;;;;;;33.35;39.86;100025.47;4974073;28;20046;-66
2022/07/25 09:15:59;;;;;;;4.67;1.93;;;;;;;33.53;38.54;100038.69;4972771;28;20101;-66
2022/07/25 09:18:27;;;;;;;3.08;1.90;;;;;;;33.60;39.34;100036.03;4973570;28;20542;-66
2022/07/25 09:20:58;;;;;;;2.60;1.85;;;;;;;34.10;39.49;100031.78;4972931;28;20059;-66
2022/07/25 09:23:29;;;;;;;2.20;1.65;;;;;;;34.09;38.59;100030.31;4973342;28;20030;-66
2022/07/25 09:26:03;;;;;;;3.10;1.95;;;;;;;34.53;37.89;100032.38;4987366;28;20043;-66
2022/07/25 09:28:28;;;;;;;2.25;1.60;;;;;;;34.79;38.50;100029.59;4972211;28;20039;-66
2022/07/25 09:31:00;;;;;;;2.28;1.80;;;;;;;34.95;38.73;100020.13;4973324;28;20031;-66
2022/07/25 09:33:30;;;;;;;7.95;2.40;;;;;;;34.51;37.70;100021.69;4974938;28;20045;-67
2022/07/25 09:35:56;;;;;;;2.47;1.73;;;;;;;34.55;37.03;100016.53;4991613;28;20090;-66
2022/07/25 09:38:28;;;;;;;2.50;1.80;;;;;;;34.09;37.03;100013.50;4992746;28;20042;-66
2022/07/25 09:40:58;;;;;;;3.45;1.98;;;;;;;34.32;37.79;100006.25;4982586;28;20038;-66
2022/07/25 09:43:47;;;;;;;2.92;1.98;;;;;;;34.73;37.90;100003.00;4973016;28;20512;-66
2022/07/25 09:46:18;;;;;;;3.45;1.92;;;;;;;34.91;36.26;99999.31;4971978;28;20039;-66
2022/07/25 09:48:44;;;;;;;2.90;1.90;;;;;;;35.10;37.90;100005.59;4991007;28;20065;-66
2022/07/25 09:51:15;;;;;;;2.90;1.75;;;;;;;35.11;37.75;100009.91;4992178;28;20129;-66
2022/07/25 09:53:41;;;;;;;2.63;1.95;;;;;;;35.33;37.11;100001.00;4992113;28;20030;-66
2022/07/25 09:56:11;;;;;;;2.80;1.65;;;;;;;35.43;37.40;100002.84;4991127;28;20026;-67
2022/07/25 09:58:41;;;;;;;2.35;1.70;;;;;;;35.47;37.41;99990.56;4972937;28;20073;-67
2022/07/25 10:01:15;;;;;;;2.40;2.05;;;;;;;35.30;35.93;99993.72;4972988;28;20062;-67
2022/07/25 10:03:57;;;;;;;1.80;1.40;;;;;;;35.31;36.75;99990.34;4972652;28;20038;-66
2022/07/25 10:07:02;;;;;;;2.58;1.80;;;;;;;35.24;36.75;99991.03;4972439;28;20042;-67
2022/07/25 10:09:29;;;;;;;2.33;1.80;;;;;;;35.68;35.93;99982.94;4972738;28;20049;-66
2022/07/25 10:12:12;;;;;;;2.53;1.55;;;;;;;35.56;36.32;99976.81;4972292;28;20033;-66
2022/07/25 10:14:43;;;;;;;2.63;1.77;;;;;;;35.74;36.17;99980.75;4972393;28;20031;-67
2022/07/25 10:17:20;;;;;;;3.35;1.75;;;;;;;35.85;36.07;99981.25;4972641;28;20121;-66
2022/07/25 10:19:50;;;;;;;2.40;1.63;;;;;;;36.15;35.21;99984.34;4972462;28;20117;-66
2022/07/25 10:22:16;;;;;;;2.35;1.48;;;;;;;36.09;35.98;99982.97;4987405;28;20042;-66
2022/07/25 10:24:49;;;;;;;2.55;1.58;;;;;;;36.03;35.21;99983.13;4972239;28;20183;-66
2022/07/25 10:27:25;;;;;;;2.85;1.90;;;;;;;36.06;34.90;99984.09;4972433;28;20043;-66
2022/07/25 10:29:56;;;;;;;2.13;1.55;;;;;;;36.14;34.44;99977.22;4987538;28;20039;-66
2022/07/25 10:32:31;;;;;;;2.65;1.40;;;;;;;36.07;34.56;99980.72;4972224;28;20398;-67
2022/07/25 10:34:56;;;;;;;1.90;1.40;;;;;;;35.97;34.96;99970.53;4985646;28;20042;-67
2022/07/25 10:37:36;;;;;;;1.35;1.17;;;;;;;35.82;35.32;99971.13;4990667;28;20100;-66
2022/07/25 10:40:02;;;;;;;1.85;1.35;;;;;;;35.73;35.54;99968.81;4991531;28;20038;-67
2022/07/25 10:42:34;;;;;;;3.75;1.63;;;;;;;35.73;35.18;99957.59;4991727;28;20066;-66
2022/07/25 10:45:01;;;;;;;2.45;1.77;;;;;;;35.78;35.33;99964.34;4989354;28;20038;-67
2022/07/25 10:47:36;;;;;;;2.30;1.58;;;;;;;35.80;34.58;99951.28;4990406;28;20069;-66
2022/07/25 10:50:02;;;;;;;1.90;1.52;;;;;;;35.82;34.67;99950.72;4988916;28;20076;-66
2022/07/25 10:52:40;;;;;;;2.08;1.50;;;;;;;35.57;35.18;99946.75;4972171;28;20130;-66
2022/07/25 10:55:06;;;;;;;2.25;1.58;;;;;;;35.70;36.18;99943.88;4970271;28;20054;-66
2022/07/25 10:57:31;;;;;;;1.83;1.48;;;;;;;35.89;35.63;99938.84;4972309;28;20038;-66
2022/07/25 11:00:08;;;;;;;1.90;1.42;;;;;;;35.96;35.54;99940.97;4975696;28;20512;-66
2022/07/25 11:02:34;;;;;;;1.70;1.45;;;;;;;36.02;35.80;99945.16;4991242;28;20027;-66
2022/07/25 11:05:01;;;;;;;2.45;1.50;;;;;;;35.98;35.74;99938.38;4989965;28;20114;-67
2022/07/25 11:07:27;;;;;;;3.70;1.70;;;;;;;35.91;35.20;99945.44;4976083;28;20150;-67
2022/07/25 11:09:58;;;;;;;2.78;1.42;;;;;;;35.39;36.26;99937.19;4975764;28;20030;-67
2022/07/25 11:12:27;;;;;;;;;;;;;;;35.39;35.84;99942.78;4976015;28;20537;-67
2022/07/25 11:14:59;;;;;;;2.70;1.60;;;;;;;35.48;35.46;99941.63;4974955;28;20371;-67
2022/07/25 11:17:28;;;;;;;2.53;1.63;;;;;;;35.40;36.38;99936.63;4975616;28;20027;-67
2022/07/25 11:19:58;;;;;;;2.60;1.85;;;;;;;35.36;36.62;99936.25;4975618;28;20038;-67
2022/07/25 11:22:28;;;;;;;1.25;1.10;;;;;;;35.03;36.97;99936.97;4975705;28;20034;-67
2022/07/25 11:24:56;;;;;;;2.30;1.75;;;;;;;34.92;36.05;99939.22;4989645;28;20054;-67
2022/07/25 11:27:30;;;;;;;2.35;1.42;;;;;;;35.01;35.75;99931.16;4975471;28;20150;-67
2022/07/25 11:30:28;;;;;;;2.03;1.52;;;;;;;34.93;36.72;99937.94;4975624;28;20069;-67
2022/07/25 11:33:00;;;;;;;2.47;1.70;;;;;;;35.01;36.09;99944.41;4974202;28;20047;-67
2022/07/25 11:35:31;;;;;;;1.55;1.35;;;;;;;34.79;36.93;99930.84;4993155;28;20580;-67